Moscow, Indiana
Current Conditions -  °F | °C
As of 5:53 AM on Monday 22 Dec 2014 (Local Time) from KGEZ Reporting Station
Overcast Overcast  
Wind Chill: 29°   Ceiling: 4200
Heat Index: 34°   Visibility: 10mi
Dew Point: 28°   Wind: 6mph
Humidity: 79%   Direction: 110°ESE
Pressure: 29.98"   Gusts: NA
Location:  39.4961°N, 85.5177°W
Report Text: KGEZ 221053Z AUTO 11005KT 10SM OVC042 01/M02 A2998 RMK AO2 SLP158 T00111022
Loading
Personal Weather Stations






























Interactive Weather Map New forecast layout! Learn more

10-Day Weather Forecast

Advertisements
Track Severe Weather on mobile